Time;durP1;ratioP1;P1;durP2;ratioP2;P2;SDS_P1;SDS_P2;PMS_P1;PMS_P2;Temp;Humidity;BMP_temperature;BMP_pressure;BME280_temperature;BME280_humidity;BME280_pressure;Samples;Min_cycle;Max_cycle;Signal;HPM_P1;HPM_P2
2022/07/30 00:01:51;;;;;;;4.50;0.88;;;;;;;;;;5081784;28;20227;-36
2022/07/30 00:04:19;;;;;;;1.67;0.75;;;;;;;;;;5080614;28;20222;-36
2022/07/30 00:06:46;;;;;;;1.13;0.98;;;;;;;;;;5080848;28;20227;-36
2022/07/30 00:09:13;;;;;;;1.80;0.80;;;;;;;;;;5079861;28;20207;-37
2022/07/30 00:11:40;;;;;;;1.17;0.80;;;;;;;;;;5059426;28;20550;-36
2022/07/30 00:14:07;;;;;;;4.85;1.08;;;;;;;;;;5075649;28;20218;-36
2022/07/30 00:16:35;;;;;;;1.92;0.80;;;;;;;;;;5077030;28;20211;-36
2022/07/30 00:19:03;;;;;;;2.45;1.00;;;;;;;;;;5077224;28;20203;-36
2022/07/30 00:21:32;;;;;;;0.90;0.80;;;;;;;;;;5076419;28;20218;-36
2022/07/30 00:24:05;;;;;;;3.67;0.73;;;;;;;;;;5076138;28;20195;-36
2022/07/30 00:26:33;;;;;;;4.00;0.90;;;;;;;;;;5076505;28;20215;-36
2022/07/30 00:28:59;;;;;;;2.28;0.82;;;;;;;;;;5076687;28;20211;-36
2022/07/30 00:31:27;;;;;;;1.75;0.90;;;;;;;;;;5110179;28;20199;-36
2022/07/30 00:33:54;;;;;;;1.75;0.80;;;;;;;;;;5077326;28;20559;-36
2022/07/30 00:36:22;;;;;;;1.40;0.80;;;;;;;;;;5077160;28;20680;-36
2022/07/30 00:38:49;;;;;;;1.63;0.90;;;;;;;;;;5077203;28;20537;-36
2022/07/30 00:41:16;;;;;;;3.20;0.85;;;;;;;;;;5077230;28;20269;-36
2022/07/30 00:43:44;;;;;;;3.60;0.80;;;;;;;;;;5077359;28;20196;-36
2022/07/30 00:46:13;;;;;;;1.77;0.82;;;;;;;;;;5076854;28;20227;-36
2022/07/30 00:48:41;;;;;;;3.83;0.77;;;;;;;;;;5076488;28;20211;-36
2022/07/30 00:51:08;;;;;;;0.82;0.70;;;;;;;;;;5077017;28;20207;-36
2022/07/30 00:53:36;;;;;;;1.90;0.70;;;;;;;;;;5075636;28;20647;-36
2022/07/30 00:56:04;;;;;;;2.72;0.80;;;;;;;;;;5077656;28;20191;-36
2022/07/30 00:58:31;;;;;;;2.30;0.70;;;;;;;;;;5076243;28;20199;-36
2022/07/30 01:00:58;;;;;;;0.95;0.80;;;;;;;;;;5076598;28;20231;-36
2022/07/30 01:03:25;;;;;;;1.73;0.80;;;;;;;;;;5075820;28;20629;-36
2022/07/30 01:05:52;;;;;;;1.33;0.60;;;;;;;;;;5075499;28;20219;-36
2022/07/30 01:08:21;;;;;;;1.30;0.80;;;;;;;;;;5076492;28;20203;-36
2022/07/30 01:10:48;;;;;;;2.72;0.80;;;;;;;;;;5110196;28;20277;-36
2022/07/30 01:13:14;;;;;;;1.02;0.70;;;;;;;;;;5076153;28;20333;-36
2022/07/30 01:15:42;;;;;;;2.60;0.75;;;;;;;;;;5076358;28;20203;-36
2022/07/30 01:18:10;;;;;;;2.08;0.75;;;;;;;;;;5092306;28;20207;-36
2022/07/30 01:20:42;;;;;;;2.72;0.80;;;;;;;;;;5076122;28;20215;-37
2022/07/30 01:23:16;;;;;;;0.60;0.60;;;;;;;;;;5059512;28;20530;-36
2022/07/30 01:26:01;;;;;;;1.63;0.77;;;;;;;;;;5076141;28;20222;-36
2022/07/30 01:28:34;;;;;;;2.97;0.70;;;;;;;;;;5076463;28;20195;-36
2022/07/30 01:31:02;;;;;;;2.17;0.75;;;;;;;;;;5075194;28;20199;-36
2022/07/30 01:33:30;;;;;;;2.05;0.68;;;;;;;;;;5075013;28;20340;-36
2022/07/30 01:36:00;;;;;;;0.70;0.60;;;;;;;;;;5075134;28;20203;-36
2022/07/30 01:38:30;;;;;;;4.47;0.80;;;;;;;;;;5058455;28;20215;-36
2022/07/30 01:41:02;;;;;;;1.75;0.77;;;;;;;;;;5075438;28;20219;-36
2022/07/30 01:43:30;;;;;;;4.10;0.80;;;;;;;;;;5075116;28;20210;-36
2022/07/30 01:45:58;;;;;;;1.17;0.60;;;;;;;;;;5075016;28;20306;-36
2022/07/30 01:48:26;;;;;;;3.00;0.70;;;;;;;;;;5074815;28;20285;-36
2022/07/30 01:50:55;;;;;;;1.75;0.60;;;;;;;;;;5058822;28;20230;-36
2022/07/30 01:53:27;;;;;;;3.70;1.00;;;;;;;;;;5074880;28;20294;-36
2022/07/30 01:55:56;;;;;;;3.67;1.05;;;;;;;;;;5058567;28;20218;-37
2022/07/30 01:58:25;;;;;;;1.45;0.60;;;;;;;;;;5058047;28;20257;-37
2022/07/30 02:00:57;;;;;;;2.95;0.90;;;;;;;;;;5058430;28;20242;-36
2022/07/30 02:03:26;;;;;;;0.85;0.70;;;;;;;;;;5075172;28;20199;-36
2022/07/30 02:06:00;;;;;;;1.48;0.88;;;;;;;;;;5108590;28;20223;-36
2022/07/30 02:08:39;;;;;;;1.40;1.00;;;;;;;;;;5074326;28;20190;-36
2022/07/30 02:11:09;;;;;;;2.85;0.80;;;;;;;;;;5108146;28;20202;-36
2022/07/30 02:13:48;;;;;;;3.47;0.50;;;;;;;;;;5074948;28;20203;-36
2022/07/30 02:16:19;;;;;;;1.63;0.80;;;;;;;;;;5107881;28;20286;-37
2022/07/30 02:19:13;;;;;;;1.92;0.80;;;;;;;;;;5074251;28;20211;-37
2022/07/30 02:21:48;;;;;;;2.38;0.55;;;;;;;;;;5074310;28;20188;-36
2022/07/30 02:24:21;;;;;;;1.40;0.90;;;;;;;;;;5057976;28;20195;-36
2022/07/30 02:26:51;;;;;;;1.35;0.90;;;;;;;;;;5073893;28;20230;-36
2022/07/30 02:29:19;;;;;;;2.15;0.88;;;;;;;;;;5057236;28;20603;-36
2022/07/30 02:31:47;;;;;;;1.88;0.88;;;;;;;;;;5074109;28;20199;-36
2022/07/30 02:34:15;;;;;;;1.27;0.80;;;;;;;;;;5073418;28;20199;-36
2022/07/30 02:36:43;;;;;;;2.92;0.73;;;;;;;;;;5073681;28;20215;-36
2022/07/30 02:39:13;;;;;;;1.73;0.90;;;;;;;;;;5073761;28;20199;-36
2022/07/30 02:41:41;;;;;;;2.97;0.77;;;;;;;;;;5057328;28;20221;-36
2022/07/30 02:44:18;;;;;;;2.33;0.73;;;;;;;;;;5073659;28;20206;-36
2022/07/30 02:46:47;;;;;;;0.85;0.70;;;;;;;;;;5091132;28;20211;-36
2022/07/30 02:49:30;;;;;;;1.60;0.90;;;;;;;;;;5073716;28;20206;-36
2022/07/30 02:51:58;;;;;;;4.38;0.90;;;;;;;;;;5057122;28;20234;-36
2022/07/30 02:54:27;;;;;;;2.97;0.85;;;;;;;;;;5074456;28;20200;-36
2022/07/30 02:56:58;;;;;;;2.75;1.00;;;;;;;;;;5073974;28;20198;-36
2022/07/30 02:59:27;;;;;;;1.30;0.80;;;;;;;;;;5057012;28;20196;-36
2022/07/30 03:01:54;;;;;;;3.75;0.82;;;;;;;;;;5073396;28;20223;-36
2022/07/30 03:04:22;;;;;;;1.75;0.70;;;;;;;;;;5056945;28;20203;-36
2022/07/30 03:06:50;;;;;;;2.25;0.90;;;;;;;;;;5073363;28;20669;-36
2022/07/30 03:09:17;;;;;;;2.28;0.90;;;;;;;;;;5073348;28;20199;-36
2022/07/30 03:11:45;;;;;;;1.63;0.90;;;;;;;;;;5073367;28;20203;-36
2022/07/30 03:14:12;;;;;;;1.90;1.00;;;;;;;;;;5073383;28;20219;-36
2022/07/30 03:16:40;;;;;;;2.50;0.70;;;;;;;;;;5073716;28;20226;-36
2022/07/30 03:19:09;;;;;;;2.97;0.90;;;;;;;;;;5090602;28;20626;-36
2022/07/30 03:21:38;;;;;;;1.48;0.93;;;;;;;;;;5074130;28;20290;-36
2022/07/30 03:24:06;;;;;;;2.08;1.00;;;;;;;;;;5073458;28;20208;-36
2022/07/30 03:26:34;;;;;;;1.67;1.00;;;;;;;;;;5073530;28;20273;-36
2022/07/30 03:29:02;;;;;;;3.30;0.90;;;;;;;;;;5057526;28;20258;-36
2022/07/30 03:31:29;;;;;;;1.70;0.82;;;;;;;;;;5090394;28;20232;-36
2022/07/30 03:34:08;;;;;;;0.80;0.70;;;;;;;;;;5073420;28;20539;-36
2022/07/30 03:36:40;;;;;;;1.67;0.90;;;;;;;;;;5091838;28;20199;-36
2022/07/30 03:39:08;;;;;;;6.32;1.10;;;;;;;;;;5073656;28;20207;-36
2022/07/30 03:41:35;;;;;;;2.25;0.93;;;;;;;;;;5073425;28;20210;-36
2022/07/30 03:44:07;;;;;;;2.92;1.05;;;;;;;;;;5057390;28;20253;-36
2022/07/30 03:46:36;;;;;;;1.48;0.90;;;;;;;;;;5057057;28;20239;-36
2022/07/30 03:49:04;;;;;;;2.10;0.85;;;;;;;;;;5077310;28;20214;-36
2022/07/30 03:51:33;;;;;;;1.42;0.90;;;;;;;;;;5077898;28;20571;-37
2022/07/30 03:54:03;;;;;;;1.42;0.90;;;;;;;;;;5061320;28;20196;-36
2022/07/30 03:56:39;;;;;;;0.80;0.80;;;;;;;;;;5082939;28;20194;-37
2022/07/30 03:59:15;;;;;;;3.78;1.00;;;;;;;;;;5067165;28;20316;-37
2022/07/30 04:01:42;;;;;;;3.33;1.20;;;;;;;;;;5083785;28;20283;-37
2022/07/30 04:04:45;;;;;;;1.30;0.77;;;;;;;;;;5086070;28;20195;-37
2022/07/30 04:07:13;;;;;;;2.00;1.02;;;;;;;;;;5082984;28;20223;-37
2022/07/30 04:09:40;;;;;;;3.90;1.00;;;;;;;;;;5084730;28;20208;-37
2022/07/30 04:12:27;;;;;;;1.40;1.00;;;;;;;;;;5080327;28;20205;-37
2022/07/30 04:14:56;;;;;;;1.27;0.98;;;;;;;;;;5112123;27;20252;-37
2022/07/30 04:17:26;;;;;;;2.03;0.80;;;;;;;;;;5085206;28;20277;-37
2022/07/30 04:20:01;;;;;;;3.17;0.90;;;;;;;;;;5064465;28;20209;-36
2022/07/30 04:22:31;;;;;;;1.65;1.00;;;;;;;;;;5086230;28;20199;-37
2022/07/30 04:25:00;;;;;;;1.35;1.00;;;;;;;;;;5084989;28;20634;-39
2022/07/30 04:27:28;;;;;;;3.22;0.90;;;;;;;;;;5084268;28;20222;-36
2022/07/30 04:29:55;;;;;;;2.45;0.90;;;;;;;;;;5082883;28;20259;-37
2022/07/30 04:32:22;;;;;;;1.92;0.82;;;;;;;;;;5085546;28;20594;-36
2022/07/30 04:35:12;;;;;;;5.90;1.02;;;;;;;;;;5066826;28;20195;-37
2022/07/30 04:38:16;;;;;;;5.05;1.23;;;;;;;;;;5083031;28;20520;-38
2022/07/30 04:40:47;;;;;;;1.67;0.93;;;;;;;;;;5084121;28;20183;-39
2022/07/30 04:43:14;;;;;;;1.23;0.73;;;;;;;;;;5084061;28;20196;-37
2022/07/30 04:45:42;;;;;;;2.42;1.00;;;;;;;;;;5072144;28;20211;-37
2022/07/30 04:48:10;;;;;;;3.10;0.82;;;;;;;;;;5058151;28;20232;-36
2022/07/30 04:51:20;;;;;;;3.92;1.00;;;;;;;;;;5035115;28;20216;-37
2022/07/30 04:53:48;;;;;;;3.28;0.90;;;;;;;;;;5035352;28;20204;-37
2022/07/30 04:56:19;;;;;;;4.20;1.20;;;;;;;;;;5035525;28;20373;-37
2022/07/30 04:58:47;;;;;;;2.53;1.30;;;;;;;;;;5002372;28;20200;-37
2022/07/30 05:01:20;;;;;;;2.45;1.05;;;;;;;;;;5034762;28;20229;-36
2022/07/30 05:03:50;;;;;;;1.63;1.13;;;;;;;;;;5018807;28;20200;-37
2022/07/30 05:06:19;;;;;;;4.45;1.10;;;;;;;;;;5035210;28;20295;-37
2022/07/30 05:08:47;;;;;;;3.58;1.27;;;;;;;;;;5034887;28;20209;-37
2022/07/30 05:11:15;;;;;;;5.22;1.35;;;;;;;;;;5034929;28;20272;-37
2022/07/30 05:13:49;;;;;;;7.05;1.20;;;;;;;;;;5035004;28;20223;-36
2022/07/30 05:16:20;;;;;;;1.90;1.20;;;;;;;;;;5003086;28;20200;-36
2022/07/30 05:18:52;;;;;;;3.65;1.20;;;;;;;;;;5034959;28;20534;-37
2022/07/30 05:21:20;;;;;;;1.77;1.10;;;;;;;;;;5039433;28;20200;-37
2022/07/30 05:23:48;;;;;;;1.95;1.20;;;;;;;;;;5065486;28;20211;-37
2022/07/30 05:26:37;;;;;;;3.25;1.35;;;;;;;;;;5075649;28;20530;-36
2022/07/30 05:29:05;;;;;;;4.05;1.02;;;;;;;;;;5108843;28;20199;-36
2022/07/30 05:31:47;;;;;;;3.58;1.48;;;;;;;;;;5075761;28;20207;-36
2022/07/30 05:34:15;;;;;;;2.78;1.10;;;;;;;;;;5074985;28;20207;-37
2022/07/30 05:36:44;;;;;;;2.03;1.40;;;;;;;;;;5108942;28;20226;-37
2022/07/30 05:39:15;;;;;;;3.60;1.70;;;;;;;;;;5074909;28;20191;-37
2022/07/30 05:41:51;;;;;;;4.47;1.70;;;;;;;;;;5076497;28;20233;-36
2022/07/30 05:44:26;;;;;;;4.38;1.40;;;;;;;;;;5074986;28;20199;-36
2022/07/30 05:46:54;;;;;;;1.55;1.17;;;;;;;;;;5108502;28;20681;-36
2022/07/30 05:49:22;;;;;;;2.45;1.42;;;;;;;;;;5108899;28;20208;-37
2022/07/30 05:51:51;;;;;;;2.35;1.50;;;;;;;;;;5074974;28;20233;-37
2022/07/30 05:54:18;;;;;;;2.72;1.35;;;;;;;;;;5074897;28;20246;-37
2022/07/30 05:57:21;;;;;;;2.47;1.23;;;;;;;;;;5094054;28;20206;-36
2022/07/30 05:59:49;;;;;;;5.88;1.50;;;;;;;;;;5077101;28;20199;-37
2022/07/30 06:02:42;;;;;;;3.15;1.42;;;;;;;;;;5092101;28;20252;-37
2022/07/30 06:05:25;;;;;;;3.05;1.40;;;;;;;;;;5088232;28;20295;-37
2022/07/30 06:07:55;;;;;;;2.88;1.60;;;;;;;;;;5075722;28;20241;-37
2022/07/30 06:10:24;;;;;;;3.58;1.20;;;;;;;;;;5074832;28;20234;-37
2022/07/30 06:12:52;;;;;;;3.75;1.52;;;;;;;;;;5075623;28;20762;-37
2022/07/30 06:15:19;;;;;;;3.97;1.42;;;;;;;;;;5075463;28;20708;-37
2022/07/30 06:17:53;;;;;;;3.45;1.55;;;;;;;;;;5075625;28;20577;-37
2022/07/30 06:20:41;;;;;;;4.13;1.13;;;;;;;;;;5063691;28;20736;-37
2022/07/30 06:23:21;;;;;;;3.20;1.65;;;;;;;;;;5075933;28;20230;-38
2022/07/30 06:26:11;;;;;;;3.55;1.55;;;;;;;;;;5075637;28;20222;-37
2022/07/30 06:28:39;;;;;;;2.63;1.35;;;;;;;;;;5059573;28;20238;-38
2022/07/30 06:31:17;;;;;;;2.53;1.35;;;;;;;;;;5072575;28;20231;-37
2022/07/30 06:33:45;;;;;;;4.00;1.63;;;;;;;;;;5073286;28;20227;-38
2022/07/30 06:36:13;;;;;;;1.77;1.50;;;;;;;;;;5072662;28;20227;-37
2022/07/30 06:39:01;;;;;;;4.70;1.40;;;;;;;;;;5073756;28;20245;-36
2022/07/30 06:41:54;;;;;;;3.33;1.58;;;;;;;;;;5057569;28;20261;-37
2022/07/30 06:44:24;;;;;;;4.75;1.50;;;;;;;;;;5073388;28;20224;-37
2022/07/30 06:47:11;;;;;;;6.43;1.50;;;;;;;;;;5073826;28;20258;-36
2022/07/30 06:49:40;;;;;;;2.65;1.58;;;;;;;;;;5072327;28;20227;-37
2022/07/30 06:52:09;;;;;;;4.95;2.03;;;;;;;;;;5072823;28;20223;-36
2022/07/30 06:54:40;;;;;;;3.17;1.65;;;;;;;;;;5073319;28;20231;-37
2022/07/30 06:57:19;;;;;;;2.88;1.70;;;;;;;;;;5073167;28;20567;-36
2022/07/30 06:59:48;;;;;;;7.40;1.88;;;;;;;;;;5072740;28;20233;-36
2022/07/30 07:02:38;;;;;;;2.67;1.63;;;;;;;;;;5073051;28;20231;-36
2022/07/30 07:05:09;;;;;;;2.67;1.60;;;;;;;;;;5072511;28;20219;-36
2022/07/30 07:07:39;;;;;;;5.88;1.63;;;;;;;;;;5072896;28;20242;-38
2022/07/30 07:10:17;;;;;;;3.53;1.90;;;;;;;;;;5071943;28;20222;-37
2022/07/30 07:12:44;;;;;;;4.95;1.77;;;;;;;;;;5070689;28;20234;-40
2022/07/30 07:15:14;;;;;;;5.53;1.63;;;;;;;;;;5071197;28;20244;-39
2022/07/30 07:17:41;;;;;;;6.07;2.00;;;;;;;;;;5069174;28;20226;-39
2022/07/30 07:20:42;;;;;;;5.88;1.80;;;;;;;;;;5027491;28;20224;-39
2022/07/30 07:23:09;;;;;;;4.97;1.83;;;;;;;;;;5017158;28;20221;-38
2022/07/30 07:25:39;;;;;;;2.25;1.58;;;;;;;;;;5035747;28;20236;-38
2022/07/30 07:28:07;;;;;;;2.28;1.75;;;;;;;;;;5014646;28;20315;-38
2022/07/30 07:30:40;;;;;;;2.63;1.60;;;;;;;;;;5019291;28;20259;-38
2022/07/30 07:33:09;;;;;;;2.38;1.80;;;;;;;;;;5035138;28;20224;-39
2022/07/30 07:35:37;;;;;;;7.45;1.90;;;;;;;;;;5034522;28;20323;-39
2022/07/30 07:38:21;;;;;;;5.47;1.70;;;;;;;;;;5005092;28;20232;-39
2022/07/30 07:40:49;;;;;;;3.05;1.80;;;;;;;;;;5034968;28;20263;-39
2022/07/30 07:43:16;;;;;;;10.63;1.80;;;;;;;;;;5035157;28;20228;-39
2022/07/30 07:45:44;;;;;;;2.95;1.75;;;;;;;;;;5018623;28;20546;-39
2022/07/30 07:48:12;;;;;;;4.72;2.30;;;;;;;;;;5034807;28;20700;-38
2022/07/30 07:50:53;;;;;;;8.25;2.40;;;;;;;;;;5014926;28;20229;-38
2022/07/30 07:53:28;;;;;;;2.20;1.90;;;;;;;;;;5031627;28;20747;-39
2022/07/30 07:55:56;;;;;;;4.20;2.05;;;;;;;;;;5028811;28;20216;-39
2022/07/30 07:58:24;;;;;;;5.05;2.03;;;;;;;;;;5055680;28;20227;-39
2022/07/30 08:00:56;;;;;;;4.13;2.10;;;;;;;;;;5073393;28;20247;-39
2022/07/30 08:03:43;;;;;;;6.03;2.00;;;;;;;;;;5074672;28;20223;-39
2022/07/30 08:06:30;;;;;;;5.93;2.00;;;;;;;;;;5076449;28;20226;-38
2022/07/30 08:09:15;;;;;;;5.32;2.10;;;;;;;;;;5076917;28;20254;-38
2022/07/30 08:12:02;;;;;;;3.45;2.40;;;;;;;;;;5076626;28;20560;-38
2022/07/30 08:15:04;;;;;;;12.45;2.67;;;;;;;;;;5077208;28;20203;-39
2022/07/30 08:17:46;;;;;;;2.67;2.00;;;;;;;;;;5076668;28;20278;-38
2022/07/30 08:20:21;;;;;;;5.63;2.50;;;;;;;;;;5076252;28;20614;-38
2022/07/30 08:22:48;;;;;;;12.18;2.15;;;;;;;;;;5076596;28;20258;-38
2022/07/30 08:25:15;;;;;;;4.70;2.25;;;;;;;;;;5076525;28;20203;-38
2022/07/30 08:27:51;;;;;;;4.65;2.42;;;;;;;;;;5076181;28;20298;-38
2022/07/30 08:30:19;;;;;;;4.32;2.30;;;;;;;;;;5076345;28;20199;-38
2022/07/30 08:32:46;;;;;;;3.40;2.13;;;;;;;;;;5075070;28;20234;-39
2022/07/30 08:35:13;;;;;;;4.25;2.40;;;;;;;;;;5076301;28;20298;-38
2022/07/30 08:37:41;;;;;;;5.28;2.67;;;;;;;;;;5076080;28;20239;-38
2022/07/30 08:40:08;;;;;;;3.38;2.35;;;;;;;;;;5059806;28;20203;-38
2022/07/30 08:42:51;;;;;;;4.05;2.40;;;;;;;;;;5076122;28;20199;-38
2022/07/30 08:45:18;;;;;;;3.28;2.20;;;;;;;;;;5076168;28;20194;-38
2022/07/30 08:48:12;;;;;;;4.55;1.92;;;;;;;;;;5075772;28;20212;-38
2022/07/30 08:50:44;;;;;;;4.82;2.50;;;;;;;;;;5059493;28;20523;-38
2022/07/30 08:53:32;;;;;;;9.80;2.50;;;;;;;;;;5076726;28;20191;-38
2022/07/30 08:56:00;;;;;;;5.10;2.40;;;;;;;;;;5075775;28;20207;-38
2022/07/30 08:58:32;;;;;;;4.70;2.42;;;;;;;;;;5075517;28;20286;-38
2022/07/30 09:01:03;;;;;;;5.80;2.15;;;;;;;;;;5076413;28;20250;-38
2022/07/30 09:03:31;;;;;;;4.32;2.45;;;;;;;;;;5075633;28;20257;-38
2022/07/30 09:06:01;;;;;;;3.45;2.20;;;;;;;;;;5075612;28;20222;-38
2022/07/30 09:08:28;;;;;;;7.03;2.70;;;;;;;;;;5064840;28;20682;-38
2022/07/30 09:10:56;;;;;;;4.50;2.40;;;;;;;;;;5065778;28;20199;-38
2022/07/30 09:13:25;;;;;;;8.32;2.40;;;;;;;;;;5057365;28;20227;-38
2022/07/30 09:15:53;;;;;;;4.45;2.40;;;;;;;;;;5054924;28;20639;-38
2022/07/30 09:18:36;;;;;;;5.55;2.25;;;;;;;;;;5055318;28;20200;-38
2022/07/30 09:21:16;;;;;;;2.78;2.40;;;;;;;;;;5055138;28;20619;-38
2022/07/30 09:23:58;;;;;;;7.03;2.50;;;;;;;;;;5054812;28;20207;-38
2022/07/30 09:26:57;;;;;;;8.75;2.50;;;;;;;;;;5034551;28;20220;-39
2022/07/30 09:29:43;;;;;;;10.02;2.42;;;;;;;;;;5055129;28;20258;-38
2022/07/30 09:32:53;;;;;;;9.02;2.42;;;;;;;;;;5069809;28;20223;-38
2022/07/30 09:35:41;;;;;;;9.75;2.60;;;;;;;;;;5074278;28;20207;-38
2022/07/30 09:38:09;;;;;;;9.40;2.45;;;;;;;;;;5074814;28;20756;-38
2022/07/30 09:40:56;;;;;;;5.30;2.70;;;;;;;;;;5075904;28;20203;-38
2022/07/30 09:43:46;;;;;;;5.07;2.40;;;;;;;;;;5075828;28;20257;-38
2022/07/30 09:46:43;;;;;;;11.10;2.72;;;;;;;;;;5075075;28;20188;-36
2022/07/30 09:49:21;;;;;;;9.93;2.80;;;;;;;;;;5108492;28;20219;-36
2022/07/30 09:51:49;;;;;;;4.85;2.58;;;;;;;;;;5074732;28;20202;-36
2022/07/30 09:54:25;;;;;;;8.95;3.03;;;;;;;;;;5108605;28;20527;-36
2022/07/30 09:57:06;;;;;;;9.15;2.40;;;;;;;;;;5074661;28;20200;-36
2022/07/30 09:59:52;;;;;;;11.65;2.47;;;;;;;;;;5108336;28;20549;-36
2022/07/30 10:02:28;;;;;;;3.80;2.28;;;;;;;;;;5073460;28;20286;-37
2022/07/30 10:05:19;;;;;;;4.72;2.47;;;;;;;;;;5053627;28;20332;-38
2022/07/30 10:08:08;;;;;;;6.13;2.92;;;;;;;;;;5073000;28;20286;-38
2022/07/30 10:10:46;;;;;;;3.40;2.40;;;;;;;;;;5080081;28;20191;-39
2022/07/30 10:13:17;;;;;;;4.55;2.20;;;;;;;;;;5076451;28;20187;-38
2022/07/30 10:15:48;;;;;;;6.82;2.30;;;;;;;;;;5094467;28;20198;-38
2022/07/30 10:18:15;;;;;;;4.75;2.60;;;;;;;;;;5093530;28;20568;-38
2022/07/30 10:21:05;;;;;;;7.43;2.65;;;;;;;;;;5072106;28;20207;-38
2022/07/30 10:24:05;;;;;;;4.95;2.95;;;;;;;;;;5081518;28;20197;-38
2022/07/30 10:26:53;;;;;;;5.47;2.63;;;;;;;;;;5094219;28;20221;-38
2022/07/30 10:29:47;;;;;;;6.60;2.53;;;;;;;;;;5094592;28;20202;-38
2022/07/30 10:32:14;;;;;;;8.23;2.58;;;;;;;;;;5095015;28;20255;-38
2022/07/30 10:34:42;;;;;;;5.10;2.22;;;;;;;;;;5095178;28;20271;-38
2022/07/30 10:37:11;;;;;;;5.28;2.70;;;;;;;;;;5094162;28;20205;-38
2022/07/30 10:39:44;;;;;;;15.95;2.75;;;;;;;;;;5093900;28;20198;-38
2022/07/30 10:42:24;;;;;;;8.20;2.72;;;;;;;;;;5094613;28;20678;-38
2022/07/30 10:45:00;;;;;;;10.23;2.97;;;;;;;;;;5094336;28;20261;-38
2022/07/30 10:47:27;;;;;;;5.47;2.45;;;;;;;;;;5093946;28;20190;-38
2022/07/30 10:50:18;;;;;;;7.63;2.75;;;;;;;;;;5094152;28;20210;-39
2022/07/30 10:52:53;;;;;;;5.05;2.58;;;;;;;;;;5095102;28;20187;-38
2022/07/30 10:55:21;;;;;;;4.78;2.65;;;;;;;;;;5094819;28;20187;-38
2022/07/30 10:58:07;;;;;;;5.72;2.75;;;;;;;;;;5094843;28;20252;-38
2022/07/30 11:00:55;;;;;;;4.07;2.63;;;;;;;;;;5094674;28;20270;-38
2022/07/30 11:03:27;;;;;;;11.85;3.08;;;;;;;;;;5094328;28;20610;-38
2022/07/30 11:06:14;;;;;;;6.43;2.42;;;;;;;;;;5094807;28;20191;-39
2022/07/30 11:08:44;;;;;;;8.35;2.70;;;;;;;;;;5094934;28;20245;-38
2022/07/30 11:11:20;;;;;;;13.30;3.00;;;;;;;;;;5095226;28;20199;-38
2022/07/30 11:14:07;;;;;;;5.90;2.60;;;;;;;;;;5094463;28;20290;-39
2022/07/30 11:16:34;;;;;;;7.30;2.65;;;;;;;;;;5075205;28;20214;-38
2022/07/30 11:19:07;;;;;;;4.45;3.00;;;;;;;;;;5060671;28;20218;-38
2022/07/30 11:22:27;;;;;;;7.00;2.80;;;;;;;;;;5073455;28;20541;-39
2022/07/30 11:24:56;;;;;;;5.97;2.78;;;;;;;;;;5086163;28;20233;-39
2022/07/30 11:27:46;;;;;;;8.35;2.92;;;;;;;;;;5081327;28;20196;-40
2022/07/30 11:30:14;;;;;;;5.90;3.00;;;;;;;;;;5073357;28;20229;-41
2022/07/30 11:32:45;;;;;;;11.13;3.00;;;;;;;;;;5083737;28;20203;-45
2022/07/30 11:35:27;;;;;;;3.45;2.53;;;;;;;;;;5079706;28;20195;-40
2022/07/30 11:38:18;;;;;;;4.13;2.90;;;;;;;;;;5094276;28;20203;-39
2022/07/30 11:40:48;;;;;;;9.88;3.38;;;;;;;;;;5090827;28;20202;-39
2022/07/30 11:43:23;;;;;;;5.80;2.90;;;;;;;;;;5084571;28;20191;-39
2022/07/30 11:46:12;;;;;;;5.72;2.92;;;;;;;;;;5079154;28;20267;-38
2022/07/30 11:48:55;;;;;;;4.47;3.03;;;;;;;;;;5085524;28;20211;-37
2022/07/30 11:51:22;;;;;;;7.18;3.42;;;;;;;;;;5093822;28;20183;-40
2022/07/30 11:54:06;;;;;;;9.05;2.92;;;;;;;;;;5071679;28;20227;-38
2022/07/30 11:56:33;;;;;;;8.25;3.38;;;;;;;;;;5077502;28;20305;-40
2022/07/30 11:59:01;;;;;;;5.03;3.22;;;;;;;;;;5072323;28;20565;-39
2022/07/30 12:01:29;;;;;;;7.35;3.10;;;;;;;;;;5080738;28;20269;-40
2022/07/30 12:03:56;;;;;;;5.80;3.50;;;;;;;;;;5075813;28;20223;-38
2022/07/30 12:06:24;;;;;;;7.50;3.35;;;;;;;;;;5073043;28;20253;-39
2022/07/30 12:08:52;;;;;;;6.97;3.60;;;;;;;;;;5074189;28;20552;-41
2022/07/30 12:11:30;;;;;;;3.72;3.03;;;;;;;;;;5076505;28;20200;-41
2022/07/30 12:14:00;;;;;;;6.10;3.53;;;;;;;;;;5080036;28;20180;-41
2022/07/30 12:16:29;;;;;;;4.53;3.33;;;;;;;;;;5085747;28;20186;-42
2022/07/30 12:19:14;;;;;;;10.88;3.60;;;;;;;;;;5096354;28;20297;-41
2022/07/30 12:21:42;;;;;;;8.70;3.45;;;;;;;;;;5089352;28;20191;-40
2022/07/30 12:24:10;;;;;;;5.57;3.58;;;;;;;;;;5080664;28;20203;-39
2022/07/30 12:26:37;;;;;;;4.75;3.03;;;;;;;;;;5075325;28;20210;-41
2022/07/30 12:29:09;;;;;;;6.45;2.80;;;;;;;;;;5076381;28;20227;-39
2022/07/30 12:31:37;;;;;;;9.32;3.40;;;;;;;;;;5081102;28;20506;-41
2022/07/30 12:34:26;;;;;;;8.15;3.28;;;;;;;;;;5084046;28;20202;-41
2022/07/30 12:36:53;;;;;;;5.60;2.58;;;;;;;;;;5096292;28;20260;-39
2022/07/30 12:39:25;;;;;;;7.82;3.58;;;;;;;;;;5088170;28;20199;-39
2022/07/30 12:41:54;;;;;;;4.93;2.92;;;;;;;;;;5076940;28;20274;-39
2022/07/30 12:44:43;;;;;;;4.47;2.90;;;;;;;;;;5077798;28;20195;-39
2022/07/30 12:47:22;;;;;;;5.78;3.03;;;;;;;;;;5075798;28;20261;-39
2022/07/30 12:49:51;;;;;;;5.20;3.20;;;;;;;;;;5076043;28;20222;-38
2022/07/30 12:52:27;;;;;;;10.90;3.33;;;;;;;;;;5070732;28;20231;-39
2022/07/30 12:55:07;;;;;;;8.00;3.03;;;;;;;;;;5067435;28;20610;-38
2022/07/30 12:57:55;;;;;;;5.13;3.00;;;;;;;;;;5076639;28;20199;-39
2022/07/30 13:00:29;;;;;;;6.38;3.00;;;;;;;;;;5056818;28;20297;-42
2022/07/30 13:02:57;;;;;;;9.73;3.28;;;;;;;;;;5074005;28;20571;-41
2022/07/30 13:05:48;;;;;;;3.88;2.85;;;;;;;;;;5076345;28;20203;-42
2022/07/30 13:08:16;;;;;;;5.70;2.70;;;;;;;;;;5074947;28;20282;-42
2022/07/30 13:10:58;;;;;;;5.40;3.05;;;;;;;;;;5079140;28;20227;-42
2022/07/30 13:13:27;;;;;;;8.13;3.53;;;;;;;;;;5089347;28;20633;-41
2022/07/30 13:16:03;;;;;;;3.70;2.80;;;;;;;;;;5092559;28;20642;-42
2022/07/30 13:18:32;;;;;;;4.60;2.97;;;;;;;;;;5096003;28;20186;-42
2022/07/30 13:21:00;;;;;;;4.93;2.70;;;;;;;;;;5096197;28;20198;-42
2022/07/30 13:23:28;;;;;;;7.40;2.88;;;;;;;;;;5092467;28;20250;-42
2022/07/30 13:25:56;;;;;;;5.40;2.92;;;;;;;;;;5082600;28;20203;-43
2022/07/30 13:28:24;;;;;;;3.58;2.30;;;;;;;;;;5077983;28;20207;-42
2022/07/30 13:30:51;;;;;;;9.23;2.67;;;;;;;;;;5084973;28;20219;-42
2022/07/30 13:33:18;;;;;;;7.13;3.20;;;;;;;;;;5079128;28;20219;-41
2022/07/30 13:35:45;;;;;;;7.90;2.63;;;;;;;;;;5084368;28;20569;-42
2022/07/30 13:38:13;;;;;;;3.80;2.58;;;;;;;;;;5084210;28;20596;-42
2022/07/30 13:40:40;;;;;;;5.80;2.90;;;;;;;;;;5080832;28;20638;-42
2022/07/30 13:43:07;;;;;;;4.68;2.90;;;;;;;;;;5074483;28;20203;-42
2022/07/30 13:45:34;;;;;;;7.22;2.47;;;;;;;;;;5079468;28;20195;-42
2022/07/30 13:48:02;;;;;;;7.40;2.70;;;;;;;;;;5077825;28;20252;-42
2022/07/30 13:50:30;;;;;;;7.28;2.60;;;;;;;;;;5077908;28;20229;-42
2022/07/30 13:52:57;;;;;;;4.45;2.60;;;;;;;;;;5075328;28;20208;-42
2022/07/30 13:55:28;;;;;;;6.13;2.80;;;;;;;;;;5075502;28;20191;-43
2022/07/30 13:57:56;;;;;;;4.35;2.60;;;;;;;;;;5075293;28;20218;-40
2022/07/30 14:00:23;;;;;;;6.65;2.70;;;;;;;;;;5075259;28;20231;-40
2022/07/30 14:02:50;;;;;;;5.50;2.60;;;;;;;;;;5074852;28;20199;-42
2022/07/30 14:05:17;;;;;;;7.10;2.53;;;;;;;;;;5074770;28;20695;-42
2022/07/30 14:07:44;;;;;;;7.63;2.92;;;;;;;;;;5074836;28;20221;-41
2022/07/30 14:10:11;;;;;;;5.95;2.92;;;;;;;;;;5073974;28;20219;-41
2022/07/30 14:12:39;;;;;;;3.38;2.58;;;;;;;;;;5075106;28;20207;-41
2022/07/30 14:15:08;;;;;;;6.32;2.65;;;;;;;;;;5075094;28;20199;-41
2022/07/30 14:17:35;;;;;;;5.15;2.70;;;;;;;;;;5075000;28;20234;-41
2022/07/30 14:20:03;;;;;;;4.32;2.83;;;;;;;;;;5074844;28;20568;-41
2022/07/30 14:22:30;;;;;;;4.15;2.65;;;;;;;;;;5075169;28;20206;-38
2022/07/30 14:24:58;;;;;;;5.75;2.70;;;;;;;;;;5075233;28;20206;-41
2022/07/30 14:27:26;;;;;;;13.45;3.40;;;;;;;;;;5075380;28;20199;-40
2022/07/30 14:29:53;;;;;;;8.15;2.70;;;;;;;;;;5074611;28;20238;-40
2022/07/30 14:32:19;;;;;;;11.20;3.13;;;;;;;;;;5074537;28;20214;-39
2022/07/30 14:34:49;;;;;;;5.63;2.17;;;;;;;;;;5075066;28;20218;-40
2022/07/30 14:37:16;;;;;;;3.65;2.65;;;;;;;;;;5074491;28;20606;-40
2022/07/30 14:39:43;;;;;;;7.40;2.50;;;;;;;;;;5074815;28;20658;-38
2022/07/30 14:42:10;;;;;;;9.65;2.50;;;;;;;;;;5075086;28;20203;-38
2022/07/30 14:44:37;;;;;;;4.57;2.50;;;;;;;;;;5074708;28;20200;-39
2022/07/30 14:47:04;;;;;;;5.25;2.67;;;;;;;;;;5074694;28;20218;-38
2022/07/30 14:49:32;;;;;;;6.97;2.60;;;;;;;;;;5074613;28;20231;-38
2022/07/30 14:51:59;;;;;;;8.85;2.72;;;;;;;;;;5074909;28;20269;-39
2022/07/30 14:54:26;;;;;;;9.48;3.08;;;;;;;;;;5074606;28;20252;-38
2022/07/30 14:56:54;;;;;;;8.15;2.70;;;;;;;;;;5074568;28;20211;-39
2022/07/30 14:59:26;;;;;;;6.82;3.13;;;;;;;;;;5074897;28;20656;-40
2022/07/30 15:01:54;;;;;;;4.80;3.05;;;;;;;;;;5075004;28;20330;-39
2022/07/30 15:04:21;;;;;;;6.22;2.70;;;;;;;;;;5074584;28;20206;-40
2022/07/30 15:06:48;;;;;;;4.88;2.90;;;;;;;;;;5075016;28;20204;-39
2022/07/30 15:09:15;;;;;;;6.20;2.78;;;;;;;;;;5074632;28;20256;-39
2022/07/30 15:11:43;;;;;;;5.43;3.35;;;;;;;;;;5074674;28;20214;-39
2022/07/30 15:14:30;;;;;;;5.43;2.85;;;;;;;;;;5074893;28;20268;-39
2022/07/30 15:16:57;;;;;;;7.13;3.13;;;;;;;;;;5074375;28;20653;-40
2022/07/30 15:19:33;;;;;;;7.05;3.25;;;;;;;;;;5074866;28;20206;-45